createdAt,value
2022-08-09T00:00:23.127Z,21.40
2022-08-09T00:02:52.308Z,21.30
2022-08-09T00:06:18.271Z,21.40
2022-08-09T00:08:32.358Z,21.30
2022-08-09T00:11:05.578Z,21.20
2022-08-09T00:13:50.077Z,21.30
2022-08-09T00:16:26.499Z,21.20
2022-08-09T00:19:09.563Z,21.10
2022-08-09T00:21:43.226Z,21.20
2022-08-09T00:24:24.901Z,21.10
2022-08-09T00:26:55.118Z,21.10
2022-08-09T00:29:39.718Z,21.00
2022-08-09T00:32:12.776Z,20.80
2022-08-09T00:34:40.569Z,20.80
2022-08-09T00:37:19.712Z,20.80
2022-08-09T00:40:13.730Z,20.90
2022-08-09T00:44:19.388Z,20.80
2022-08-09T00:45:22.672Z,20.80
2022-08-09T00:47:50.304Z,20.80
2022-08-09T00:50:18.139Z,20.70
2022-08-09T00:52:45.758Z,20.80
2022-08-09T00:55:32.828Z,20.60
2022-08-09T00:58:01.202Z,20.70
2022-08-09T01:00:29.558Z,20.70
2022-08-09T01:03:15.447Z,20.60
2022-08-09T01:06:13.771Z,20.60
2022-08-09T01:09:12.309Z,20.50
2022-08-09T01:11:56.192Z,20.40
2022-08-09T01:14:52.634Z,20.40
2022-08-09T01:17:30.551Z,20.40
2022-08-09T01:20:06.745Z,20.40
2022-08-09T01:22:59.513Z,20.40
2022-08-09T01:25:41.747Z,20.40
2022-08-09T01:28:11.485Z,20.30
2022-08-09T01:30:51.361Z,20.40
2022-08-09T01:33:24.591Z,20.30
2022-08-09T01:35:55.246Z,20.30
2022-08-09T01:38:30.367Z,20.20
2022-08-09T01:41:17.175Z,20.20
2022-08-09T01:43:57.654Z,20.10
2022-08-09T01:46:38.516Z,20.10
2022-08-09T01:49:14.703Z,20.10
2022-08-09T01:52:07.044Z,20.10
2022-08-09T01:54:42.519Z,20.00
2022-08-09T01:57:21.084Z,20.10
2022-08-09T02:00:00.089Z,20.10
2022-08-09T02:02:48.681Z,20.00
2022-08-09T02:05:20.967Z,20.10
2022-08-09T02:08:39.106Z,20.00
2022-08-09T02:11:02.947Z,20.00
2022-08-09T02:13:55.388Z,20.10
2022-08-09T02:16:52.819Z,20.20
2022-08-09T02:19:24.019Z,20.20
2022-08-09T02:22:10.762Z,20.20
2022-08-09T02:24:41.148Z,20.30
2022-08-09T02:27:12.141Z,20.00
2022-08-09T02:29:50.764Z,19.90
2022-08-09T02:32:23.137Z,19.90
2022-08-09T02:35:00.545Z,19.80
2022-08-09T02:37:45.278Z,19.80
2022-08-09T02:40:18.519Z,19.70
2022-08-09T02:42:55.642Z,19.60
2022-08-09T02:45:31.273Z,19.70
2022-08-09T02:48:19.503Z,19.60
2022-08-09T02:50:59.573Z,19.60
2022-08-09T02:53:53.043Z,19.60
2022-08-09T02:56:29.650Z,19.50
2022-08-09T02:58:59.238Z,19.60
2022-08-09T03:01:29.626Z,19.60
2022-08-09T03:04:19.255Z,19.60
2022-08-09T03:06:49.169Z,19.50
2022-08-09T03:09:20.557Z,19.40
2022-08-09T03:12:06.012Z,19.50
2022-08-09T03:14:38.319Z,19.40
2022-08-09T03:17:09.093Z,19.30
2022-08-09T03:19:58.790Z,19.30
2022-08-09T03:22:33.524Z,19.20
2022-08-09T03:25:26.397Z,19.20
2022-08-09T03:28:01.264Z,19.10
2022-08-09T03:30:33.892Z,19.10
2022-08-09T03:33:17.796Z,19.10
2022-08-09T03:36:16.572Z,19.00
2022-08-09T03:38:43.051Z,19.10
2022-08-09T03:41:16.552Z,19.00
2022-08-09T03:43:51.683Z,19.00
2022-08-09T03:46:35.084Z,18.90
2022-08-09T03:49:08.862Z,18.90
2022-08-09T03:51:56.124Z,18.80
2022-08-09T03:54:34.655Z,18.90
2022-08-09T03:57:18.149Z,18.90
2022-08-09T03:59:55.036Z,18.80
2022-08-09T04:02:28.818Z,18.80
2022-08-09T04:04:59.227Z,18.60
2022-08-09T04:07:47.560Z,18.60
2022-08-09T04:10:20.692Z,18.70
2022-08-09T04:12:51.554Z,18.80
2022-08-09T04:15:40.483Z,18.70
2022-08-09T04:18:18.041Z,18.60
2022-08-09T04:20:51.550Z,18.70
2022-08-09T04:23:23.260Z,18.60
2022-08-09T04:25:53.509Z,18.60
2022-08-09T04:28:33.710Z,18.60
2022-08-09T04:31:09.128Z,18.50
2022-08-09T04:33:52.057Z,18.20
2022-08-09T04:36:26.946Z,18.30
2022-08-09T04:38:55.900Z,18.40
2022-08-09T04:41:32.264Z,18.50
2022-08-09T04:44:06.602Z,18.50
2022-08-09T04:46:58.495Z,18.40
2022-08-09T04:49:53.184Z,18.70
2022-08-09T04:52:29.793Z,18.50
2022-08-09T04:55:00.387Z,18.40
2022-08-09T04:57:53.761Z,18.50
2022-08-09T05:00:17.166Z,18.40
2022-08-09T05:02:51.743Z,18.50
2022-08-09T05:05:32.052Z,18.70
2022-08-09T05:08:09.125Z,18.70
2022-08-09T05:10:36.962Z,18.50
2022-08-09T05:13:04.599Z,18.50
2022-08-09T05:15:39.150Z,18.60
2022-08-09T05:18:38.122Z,18.60
2022-08-09T05:21:13.317Z,18.80
2022-08-09T05:23:57.932Z,18.80
2022-08-09T05:26:36.629Z,18.80
2022-08-09T05:29:17.291Z,18.80
2022-08-09T05:31:56.731Z,19.00
2022-08-09T05:34:32.310Z,18.90
2022-08-09T05:37:06.856Z,19.00
2022-08-09T05:39:43.940Z,19.20
2022-08-09T05:42:21.289Z,19.10
2022-08-09T05:44:57.000Z,19.20
2022-08-09T05:47:27.223Z,19.20
2022-08-09T05:50:30.772Z,19.10
2022-08-09T05:52:53.493Z,19.30
2022-08-09T05:55:23.465Z,19.40
2022-08-09T05:57:56.741Z,19.40
2022-08-09T06:00:30.646Z,19.40
2022-08-09T06:03:03.384Z,19.40
2022-08-09T06:05:49.952Z,19.40
2022-08-09T06:08:24.808Z,19.40
2022-08-09T06:10:56.972Z,19.50
2022-08-09T06:13:28.378Z,19.60
2022-08-09T06:16:04.708Z,19.50
2022-08-09T06:18:33.705Z,19.50
2022-08-09T06:21:02.421Z,19.50
2022-08-09T06:23:55.455Z,19.40
2022-08-09T06:26:22.761Z,19.70
2022-08-09T06:29:00.190Z,19.70
2022-08-09T06:31:30.553Z,19.70
2022-08-09T06:33:59.331Z,19.70
2022-08-09T06:36:27.181Z,19.70
2022-08-09T06:38:56.946Z,19.90
2022-08-09T06:42:07.531Z,19.90
2022-08-09T06:44:18.279Z,20.00
2022-08-09T06:46:48.407Z,20.10
2022-08-09T06:49:44.697Z,20.10
2022-08-09T06:52:12.127Z,20.10
2022-08-09T06:54:43.933Z,20.10
2022-08-09T06:57:14.574Z,20.20
2022-08-09T07:00:50.102Z,20.30
2022-08-09T07:02:31.763Z,20.30
2022-08-09T07:05:00.639Z,20.20
2022-08-09T07:07:59.923Z,20.40
2022-08-09T07:10:29.497Z,20.40
2022-08-09T07:12:58.335Z,20.50
2022-08-09T07:16:36.738Z,20.60
2022-08-09T07:18:15.048Z,20.70
2022-08-09T07:20:43.453Z,20.70
2022-08-09T07:23:18.584Z,20.80
2022-08-09T07:25:52.276Z,20.90
2022-08-09T07:28:34.781Z,20.90
2022-08-09T07:31:05.068Z,21.10
2022-08-09T07:33:53.081Z,21.20
2022-08-09T07:36:22.049Z,21.20
2022-08-09T07:38:56.761Z,21.20
2022-08-09T07:41:32.832Z,21.30
2022-08-09T07:44:06.625Z,21.40
2022-08-09T07:46:34.605Z,21.50
2022-08-09T07:49:05.855Z,21.60
2022-08-09T07:52:03.506Z,21.70
2022-08-09T07:54:27.976Z,21.70
2022-08-09T07:56:58.623Z,21.70
2022-08-09T07:59:45.881Z,21.90
2022-08-09T08:02:19.755Z,22.00
2022-08-09T08:04:49.257Z,22.20
2022-08-09T08:08:59.781Z,22.30
2022-08-09T08:10:10.983Z,22.40
2022-08-09T08:12:43.743Z,22.30
2022-08-09T08:15:24.328Z,22.40
2022-08-09T08:17:57.910Z,22.50
2022-08-09T08:20:30.256Z,22.70
2022-08-09T08:23:15.887Z,22.70
2022-08-09T08:25:49.847Z,22.90
2022-08-09T08:28:25.713Z,22.90
2022-08-09T08:31:13.730Z,23.20
2022-08-09T08:33:52.374Z,23.00
2022-08-09T08:36:28.782Z,23.20
2022-08-09T08:38:59.922Z,23.40
2022-08-09T08:41:41.912Z,23.60
2022-08-09T08:44:26.981Z,23.70
2022-08-09T08:47:02.480Z,23.70
2022-08-09T08:49:38.914Z,23.80
2022-08-09T08:52:58.421Z,23.90
2022-08-09T08:55:13.600Z,24.10
2022-08-09T08:57:43.827Z,24.10
2022-08-09T09:00:27.643Z,24.10
2022-08-09T09:03:08.887Z,24.20
2022-08-09T09:05:59.741Z,24.50
2022-08-09T09:08:42.124Z,24.60
2022-08-09T09:11:17.279Z,24.40
2022-08-09T09:13:56.489Z,24.50
2022-08-09T09:16:33.550Z,24.80
2022-08-09T09:19:40.161Z,24.90
2022-08-09T09:22:03.084Z,25.10
2022-08-09T09:24:37.727Z,25.30
2022-08-09T09:27:08.453Z,25.40
2022-08-09T09:32:35.149Z,25.50
2022-08-09T09:35:09.155Z,25.60
2022-08-09T09:37:40.193Z,25.60
2022-08-09T09:40:11.725Z,25.70
2022-08-09T09:42:42.827Z,26.00
2022-08-09T09:45:14.277Z,26.40
2022-08-09T09:47:58.538Z,26.50
2022-08-09T09:50:50.896Z,26.60
2022-08-09T09:53:34.428Z,26.50
2022-08-09T09:56:31.105Z,26.70
2022-08-09T09:59:00.181Z,26.60
2022-08-09T10:01:31.085Z,26.90
2022-08-09T10:04:22.856Z,26.60
2022-08-09T10:07:03.578Z,27.10
2022-08-09T10:09:49.152Z,27.10
2022-08-09T10:12:28.633Z,27.20
2022-08-09T10:15:25.523Z,27.50
2022-08-09T10:18:12.820Z,27.60
2022-08-09T10:20:44.568Z,27.10
2022-08-09T10:23:28.814Z,27.30
2022-08-09T10:26:08.054Z,27.50
2022-08-09T10:28:40.740Z,27.80
2022-08-09T10:34:10.035Z,28.00
2022-08-09T10:36:50.102Z,28.10
2022-08-09T10:39:19.915Z,28.20
2022-08-09T10:41:48.372Z,27.70
2022-08-09T10:44:24.804Z,27.80
2022-08-09T10:48:19.275Z,28.30
2022-08-09T10:51:13.622Z,28.60
2022-08-09T10:54:12.272Z,28.70
2022-08-09T10:56:42.457Z,28.80
2022-08-09T10:59:43.378Z,28.60
2022-08-09T11:03:18.064Z,28.60
2022-08-09T11:05:32.088Z,28.70
2022-08-09T11:08:47.364Z,28.80
2022-08-09T11:11:17.719Z,29.10
2022-08-09T11:13:50.898Z,29.00
2022-08-09T11:16:38.549Z,28.90
2022-08-09T11:19:10.247Z,29.50
2022-08-09T11:22:18.480Z,29.30
2022-08-09T11:25:08.083Z,29.90
2022-08-09T11:28:04.791Z,30.20
2022-08-09T11:30:33.258Z,30.20
2022-08-09T11:33:19.404Z,30.10
2022-08-09T11:35:58.251Z,30.30
2022-08-09T11:38:33.158Z,30.00
2022-08-09T11:41:12.948Z,29.90
2022-08-09T11:43:43.754Z,30.20
2022-08-09T11:46:11.846Z,30.00
2022-08-09T11:48:49.587Z,29.90
2022-08-09T11:53:00.491Z,29.80
2022-08-09T11:54:21.471Z,29.80
2022-08-09T11:57:56.850Z,30.10
2022-08-09T12:00:27.317Z,30.00
2022-08-09T12:02:57.448Z,30.60
2022-08-09T12:05:42.328Z,29.80
2022-08-09T12:08:21.649Z,29.90
2022-08-09T12:10:57.720Z,30.50
2022-08-09T12:14:09.888Z,30.30
2022-08-09T12:16:37.427Z,30.60
2022-08-09T12:19:09.169Z,30.50
2022-08-09T12:21:50.682Z,30.60
2022-08-09T12:24:25.731Z,30.70
2022-08-09T12:29:13.079Z,30.70
2022-08-09T12:30:01.725Z,30.80
2022-08-09T12:32:45.028Z,30.80
2022-08-09T12:35:19.409Z,30.80
2022-08-09T12:37:52.513Z,31.10
2022-08-09T12:40:27.172Z,31.30
2022-08-09T12:42:56.265Z,31.30
2022-08-09T12:45:33.451Z,31.30
2022-08-09T12:48:10.854Z,31.30
2022-08-09T12:50:49.442Z,31.20
2022-08-09T12:53:37.854Z,31.00
2022-08-09T12:56:39.736Z,31.40
2022-08-09T12:59:13.978Z,31.20
2022-08-09T13:01:48.859Z,31.30
2022-08-09T13:04:33.288Z,31.30
2022-08-09T13:07:19.705Z,31.90
2022-08-09T13:10:05.315Z,31.80
2022-08-09T13:12:39.723Z,31.90
2022-08-09T13:15:08.672Z,31.90
2022-08-09T13:18:03.544Z,31.70
2022-08-09T13:21:04.334Z,32.00
2022-08-09T13:24:16.340Z,31.70
2022-08-09T13:26:42.483Z,31.90
2022-08-09T13:29:42.000Z,31.80
2022-08-09T13:32:16.241Z,32.20
2022-08-09T13:34:47.579Z,32.10
2022-08-09T13:37:24.675Z,31.70
2022-08-09T13:41:54.736Z,31.60
2022-08-09T13:42:56.728Z,30.90
2022-08-09T13:45:32.189Z,30.00
2022-08-09T13:48:12.089Z,29.70
2022-08-09T13:50:42.864Z,29.60
2022-08-09T13:53:11.129Z,30.70
2022-08-09T13:55:38.728Z,31.40
2022-08-09T13:58:11.833Z,31.50
2022-08-09T14:00:50.416Z,31.00
2022-08-09T14:04:05.281Z,30.40
2022-08-09T14:06:19.210Z,30.00
2022-08-09T14:08:47.569Z,29.60
2022-08-09T14:11:16.318Z,29.60
2022-08-09T14:14:24.451Z,29.20
2022-08-09T14:16:32.063Z,30.20
2022-08-09T14:19:02.311Z,30.70
2022-08-09T14:21:32.257Z,30.70
2022-08-09T14:24:05.736Z,30.50
2022-08-09T14:26:38.383Z,30.40
2022-08-09T14:30:04.382Z,30.70
2022-08-09T14:31:56.488Z,30.40
2022-08-09T14:34:30.757Z,30.10
2022-08-09T14:37:06.276Z,30.50
2022-08-09T14:39:47.072Z,30.70
2022-08-09T14:42:38.972Z,31.00
2022-08-09T14:46:53.993Z,30.70
2022-08-09T14:48:00.261Z,30.30
2022-08-09T14:50:33.170Z,30.40
2022-08-09T14:53:11.475Z,29.90
2022-08-09T14:55:42.439Z,30.00
2022-08-09T14:58:15.888Z,29.50
2022-08-09T15:00:47.870Z,29.30
2022-08-09T15:03:20.559Z,29.10
2022-08-09T15:05:52.501Z,29.10
2022-08-09T15:08:26.034Z,29.00
2022-08-09T15:11:01.327Z,28.90
2022-08-09T15:13:55.973Z,29.00
2022-08-09T15:16:21.483Z,29.60
2022-08-09T15:18:49.779Z,30.00
2022-08-09T15:22:00.840Z,30.10
2022-08-09T15:24:12.590Z,29.80
2022-08-09T15:26:46.588Z,29.60
2022-08-09T15:30:47.497Z,29.00
2022-08-09T15:32:04.230Z,29.10
2022-08-09T15:34:35.084Z,28.90
2022-08-09T15:37:24.381Z,28.70
2022-08-09T15:40:11.747Z,28.40
2022-08-09T15:42:40.863Z,28.30
2022-08-09T15:45:11.993Z,28.60
2022-08-09T15:47:51.943Z,29.00
2022-08-09T15:50:29.089Z,29.50
2022-08-09T15:53:06.989Z,29.50
2022-08-09T15:56:10.955Z,29.70
2022-08-09T15:58:27.159Z,29.20
2022-08-09T16:00:56.760Z,28.60
2022-08-09T16:03:29.735Z,28.50
2022-08-09T16:06:07.219Z,28.30
2022-08-09T16:08:56.319Z,28.10
2022-08-09T16:11:30.948Z,28.00
2022-08-09T16:14:03.489Z,28.20
2022-08-09T16:16:36.912Z,28.30
2022-08-09T16:19:10.044Z,28.40
2022-08-09T16:21:39.182Z,28.30
2022-08-09T16:24:29.694Z,28.50
2022-08-09T16:26:56.807Z,28.50
2022-08-09T16:29:37.680Z,28.50
2022-08-09T16:32:33.396Z,28.70
2022-08-09T16:35:00.371Z,28.80
2022-08-09T16:37:54.683Z,28.80
2022-08-09T16:40:29.644Z,28.90
2022-08-09T16:43:07.174Z,28.60
2022-08-09T16:45:34.804Z,28.60
2022-08-09T16:48:38.471Z,28.50
2022-08-09T16:50:59.564Z,28.40
2022-08-09T16:53:35.528Z,28.50
2022-08-09T16:56:10.087Z,28.20
2022-08-09T16:58:49.740Z,28.00
2022-08-09T17:01:19.433Z,28.00
2022-08-09T17:03:52.911Z,28.00
2022-08-09T17:06:32.171Z,27.90
2022-08-09T17:09:17.753Z,27.80
2022-08-09T17:11:52.621Z,27.60
2022-08-09T17:14:27.552Z,27.60
2022-08-09T17:17:00.125Z,27.60
2022-08-09T17:19:46.646Z,27.90
2022-08-09T17:22:15.529Z,27.90
2022-08-09T17:24:47.940Z,27.90
2022-08-09T17:27:23.673Z,27.70
2022-08-09T17:29:52.048Z,27.60
2022-08-09T17:32:26.627Z,27.50
2022-08-09T17:35:11.227Z,27.40
2022-08-09T17:38:11.943Z,27.30
2022-08-09T17:40:33.494Z,27.20
2022-08-09T17:43:32.609Z,27.30
2022-08-09T17:46:02.943Z,27.30
2022-08-09T17:48:33.719Z,27.20
2022-08-09T17:51:08.742Z,27.20
2022-08-09T17:53:51.644Z,27.20
2022-08-09T17:56:27.817Z,27.30
2022-08-09T17:58:58.312Z,27.20
2022-08-09T18:01:26.026Z,27.20
2022-08-09T18:04:13.738Z,26.90
2022-08-09T18:06:43.148Z,26.80
2022-08-09T18:09:41.202Z,26.80
2022-08-09T18:12:19.576Z,26.60
2022-08-09T18:14:55.099Z,26.40
2022-08-09T18:18:02.187Z,26.40
2022-08-09T18:20:58.836Z,26.50
2022-08-09T18:23:07.195Z,26.60
2022-08-09T18:25:51.281Z,26.70
2022-08-09T18:30:39.883Z,26.50
2022-08-09T18:31:24.778Z,26.50
2022-08-09T18:34:00.305Z,26.50
2022-08-09T18:36:34.549Z,26.40
2022-08-09T18:39:06.424Z,26.20
2022-08-09T18:41:36.167Z,26.10
2022-08-09T18:44:12.855Z,25.90
2022-08-09T18:46:49.930Z,25.90
2022-08-09T18:49:32.093Z,26.00
2022-08-09T18:52:09.181Z,25.90
2022-08-09T18:54:42.145Z,25.90
2022-08-09T18:57:22.327Z,25.80
2022-08-09T18:59:56.551Z,25.80
2022-08-09T19:02:31.861Z,25.70
2022-08-09T19:05:04.441Z,25.60
2022-08-09T19:08:04.835Z,25.60
2022-08-09T19:10:37.894Z,25.40
2022-08-09T19:13:18.119Z,25.30
2022-08-09T19:15:50.489Z,25.30
2022-08-09T19:18:34.216Z,25.20
2022-08-09T19:21:10.480Z,25.30
2022-08-09T19:24:37.136Z,25.20
2022-08-09T19:26:30.962Z,25.20
2022-08-09T19:29:09.484Z,25.20
2022-08-09T19:31:46.252Z,25.10
2022-08-09T19:34:21.709Z,25.00
2022-08-09T19:36:54.319Z,24.90
2022-08-09T19:39:43.144Z,24.50
2022-08-09T19:42:14.546Z,24.70
2022-08-09T19:44:42.879Z,24.60
2022-08-09T19:47:11.214Z,24.60
2022-08-09T19:50:09.277Z,24.60
2022-08-09T19:52:27.263Z,24.50
2022-08-09T19:54:55.848Z,24.40
2022-08-09T19:57:25.726Z,24.50
2022-08-09T20:00:00.038Z,24.30
2022-08-09T20:04:11.550Z,24.30
2022-08-09T20:05:25.019Z,24.40
2022-08-09T20:07:59.834Z,24.20
2022-08-09T20:10:36.281Z,24.20
2022-08-09T20:13:06.614Z,24.10
2022-08-09T20:16:33.647Z,24.00
2022-08-09T20:18:27.631Z,24.00
2022-08-09T20:20:55.960Z,23.90
2022-08-09T20:23:24.166Z,23.90
2022-08-09T20:26:07.045Z,23.90
2022-08-09T20:28:47.893Z,23.70
2022-08-09T20:31:15.594Z,23.70
2022-08-09T20:33:44.313Z,23.70
2022-08-09T20:36:12.884Z,23.70
2022-08-09T20:39:18.897Z,23.50
2022-08-09T20:41:34.751Z,23.60
2022-08-09T20:44:03.699Z,23.50
2022-08-09T20:46:33.963Z,23.50
2022-08-09T20:49:16.151Z,23.50
2022-08-09T20:51:50.452Z,23.40
2022-08-09T20:54:18.175Z,23.40
2022-08-09T20:56:53.535Z,23.20
2022-08-09T20:59:25.006Z,23.20
2022-08-09T21:02:11.395Z,23.10
2022-08-09T21:05:54.279Z,23.20
2022-08-09T21:07:40.343Z,23.20
2022-08-09T21:10:08.448Z,23.10
2022-08-09T21:12:38.395Z,22.90
2022-08-09T21:15:06.418Z,23.00
2022-08-09T21:18:11.360Z,22.90
2022-08-09T21:20:29.947Z,22.90
2022-08-09T21:22:59.447Z,22.80
2022-08-09T21:25:56.100Z,22.90
2022-08-09T21:28:34.635Z,23.00
2022-08-09T21:31:17.472Z,23.00
2022-08-09T21:33:51.691Z,22.80
2022-08-09T21:36:27.985Z,22.70
2022-08-09T21:38:59.447Z,22.60
2022-08-09T21:42:04.265Z,22.40
2022-08-09T21:44:34.507Z,22.50
2022-08-09T21:47:05.130Z,22.70
2022-08-09T21:49:39.858Z,22.60
2022-08-09T21:52:16.362Z,22.50
2022-08-09T21:55:03.146Z,22.40
2022-08-09T21:57:38.495Z,22.40
2022-08-09T22:00:33.248Z,22.30
2022-08-09T22:03:04.846Z,22.30
2022-08-09T22:05:37.704Z,22.30
2022-08-09T22:08:13.634Z,22.20
2022-08-09T22:11:00.969Z,22.20
2022-08-09T22:13:36.858Z,22.10
2022-08-09T22:16:08.830Z,22.00
2022-08-09T22:18:53.571Z,22.00
2022-08-09T22:21:24.877Z,22.00
2022-08-09T22:23:59.281Z,21.90
2022-08-09T22:26:34.719Z,21.80
2022-08-09T22:29:07.410Z,21.80
2022-08-09T22:31:36.305Z,21.70
2022-08-09T22:34:14.381Z,21.70
2022-08-09T22:36:46.066Z,21.70
2022-08-09T22:39:46.792Z,21.60
2022-08-09T22:42:03.981Z,21.60
2022-08-09T22:44:44.989Z,21.60
2022-08-09T22:48:11.358Z,21.60
2022-08-09T22:50:00.206Z,21.50
2022-08-09T22:52:27.216Z,21.50
2022-08-09T22:54:54.706Z,21.50
2022-08-09T22:57:22.835Z,21.50
2022-08-09T22:59:59.438Z,21.40
2022-08-09T23:02:27.357Z,21.30
2022-08-09T23:04:55.388Z,21.30
2022-08-09T23:08:21.962Z,21.30
2022-08-09T23:10:33.520Z,21.30
2022-08-09T23:13:00.633Z,21.10
2022-08-09T23:15:29.355Z,21.30
2022-08-09T23:17:56.871Z,21.20
2022-08-09T23:20:25.164Z,21.10
2022-08-09T23:22:52.317Z,21.20
2022-08-09T23:25:19.331Z,21.30
2022-08-09T23:28:11.648Z,21.30
2022-08-09T23:30:33.569Z,21.00
2022-08-09T23:33:00.642Z,20.80
2022-08-09T23:35:27.640Z,21.10
2022-08-09T23:37:54.724Z,20.90
2022-08-09T23:40:21.852Z,20.80
2022-08-09T23:42:48.968Z,20.70
2022-08-09T23:45:37.506Z,20.70
2022-08-09T23:48:08.140Z,21.00
2022-08-09T23:50:35.604Z,20.80
2022-08-09T23:53:02.666Z,20.70
2022-08-09T23:55:30.825Z,21.00
2022-08-09T23:58:07.199Z,21.00
